createdAt,value
2023-05-07T00:03:36.724Z,5.00
2023-05-07T00:07:26.250Z,6.00
2023-05-07T00:11:14.527Z,5.50
2023-05-07T00:15:02.102Z,6.50
2023-05-07T00:18:51.580Z,6.70
2023-05-07T00:22:45.002Z,6.40
2023-05-07T00:26:32.418Z,4.90
2023-05-07T00:34:46.894Z,5.30
2023-05-07T00:39:14.306Z,4.60
2023-05-07T00:43:42.594Z,6.70
2023-05-07T00:48:10.132Z,5.20
2023-05-07T00:52:37.644Z,5.10
2023-05-07T00:57:05.070Z,6.20
2023-05-07T01:01:32.681Z,6.00
2023-05-07T01:06:06.305Z,6.70
2023-05-07T01:10:35.550Z,5.30
2023-05-07T01:15:03.956Z,6.20
2023-05-07T01:19:34.708Z,5.90
2023-05-07T01:24:02.322Z,6.10
2023-05-07T01:28:29.954Z,6.40
2023-05-07T01:33:00.240Z,5.70
2023-05-07T01:37:28.210Z,4.20
2023-05-07T01:41:55.721Z,6.00
2023-05-07T01:46:23.332Z,5.20
2023-05-07T01:50:51.905Z,5.10
2023-05-07T01:55:19.464Z,5.90
2023-05-07T01:59:48.574Z,3.70
2023-05-07T02:04:16.288Z,5.30
2023-05-07T02:08:43.708Z,5.40
2023-05-07T02:13:11.385Z,4.10
2023-05-07T02:17:38.966Z,4.70
2023-05-07T02:22:06.679Z,4.80
2023-05-07T02:26:34.229Z,3.80
2023-05-07T02:31:01.728Z,4.00
2023-05-07T02:35:29.803Z,5.40
2023-05-07T02:39:57.263Z,4.90
2023-05-07T02:44:24.956Z,5.80
2023-05-07T02:48:52.259Z,5.10
2023-05-07T02:53:19.454Z,5.30
2023-05-07T02:57:48.346Z,4.80
2023-05-07T03:01:56.289Z,4.60
2023-05-07T03:06:05.967Z,4.10
2023-05-07T03:09:53.521Z,4.10
2023-05-07T03:13:41.289Z,5.00
2023-05-07T03:17:20.998Z,4.70
2023-05-07T03:20:51.686Z,4.90
2023-05-07T03:24:31.432Z,5.10
2023-05-07T03:28:19.476Z,5.70
2023-05-07T03:32:06.737Z,5.50
2023-05-07T03:35:56.111Z,6.50
2023-05-07T03:39:26.084Z,6.20
2023-05-07T03:43:17.197Z,6.20
2023-05-07T03:47:08.652Z,6.30
2023-05-07T03:50:56.527Z,6.50
2023-05-07T03:54:28.168Z,6.60
2023-05-07T03:58:17.643Z,7.10
2023-05-07T04:02:05.838Z,7.50
2023-05-07T04:05:53.654Z,8.10
2023-05-07T04:09:41.606Z,9.60
2023-05-07T04:13:28.883Z,9.50
2023-05-07T04:17:16.739Z,9.50
2023-05-07T04:21:03.757Z,8.90
2023-05-07T04:24:52.300Z,8.30
2023-05-07T04:28:41.353Z,7.70
2023-05-07T04:32:30.102Z,9.10
2023-05-07T04:35:40.190Z,8.70
2023-05-07T04:39:29.041Z,8.30
2023-05-07T04:43:17.211Z,9.30
2023-05-07T04:46:56.475Z,7.70
2023-05-07T04:50:45.766Z,7.10
2023-05-07T04:54:32.977Z,4.80
2023-05-07T04:58:21.124Z,8.50
2023-05-07T05:02:12.267Z,7.40
2023-05-07T05:05:59.941Z,6.10
2023-05-07T05:09:48.302Z,5.30
2023-05-07T05:13:37.973Z,5.40
2023-05-07T05:17:27.970Z,6.20
2023-05-07T05:21:15.486Z,4.40
2023-05-07T05:25:03.790Z,5.50
2023-05-07T05:28:43.170Z,4.80
2023-05-07T05:32:24.971Z,4.30
2023-05-07T05:36:12.989Z,5.90
2023-05-07T05:39:50.833Z,4.10
2023-05-07T05:43:58.409Z,3.80
2023-05-07T05:47:46.316Z,4.50
2023-05-07T05:51:33.673Z,4.50
2023-05-07T05:55:22.099Z,4.20
2023-05-07T05:59:09.615Z,4.10
2023-05-07T06:02:57.600Z,5.30
2023-05-07T06:06:38.662Z,3.60
2023-05-07T06:10:26.454Z,4.30
2023-05-07T06:14:14.200Z,2.90
2023-05-07T06:18:03.148Z,2.60
2023-05-07T06:22:06.975Z,2.90
2023-05-07T06:26:20.445Z,2.90
2023-05-07T06:30:08.795Z,2.20
2023-05-07T06:33:55.156Z,2.00
2023-05-07T06:37:50.880Z,2.70
2023-05-07T06:41:38.926Z,1.80
2023-05-07T06:45:33.034Z,2.70
2023-05-07T06:49:20.980Z,2.80
2023-05-07T06:53:01.275Z,2.90
2023-05-07T06:57:10.346Z,3.30
2023-05-07T07:00:36.419Z,2.70
2023-05-07T07:04:24.467Z,3.40
2023-05-07T07:07:59.616Z,3.00
2023-05-07T07:11:49.137Z,2.60
2023-05-07T07:15:37.313Z,2.40
2023-05-07T07:19:47.041Z,2.40
2023-05-07T07:23:57.342Z,1.70
2023-05-07T07:27:47.002Z,2.20
2023-05-07T07:31:35.299Z,1.80
2023-05-07T07:35:45.537Z,2.70
2023-05-07T07:39:34.633Z,2.30
2023-05-07T07:43:23.000Z,3.50
2023-05-07T07:47:48.110Z,2.50
2023-05-07T07:51:36.901Z,2.50
2023-05-07T07:55:29.253Z,2.60
2023-05-07T07:59:33.745Z,2.60
2023-05-07T08:03:41.906Z,2.80
2023-05-07T08:08:17.100Z,2.40
2023-05-07T08:11:44.030Z,2.10
2023-05-07T08:16:09.004Z,1.50
2023-05-07T08:25:02.462Z,2.20
2023-05-07T08:28:55.255Z,5.20
2023-05-07T08:32:46.522Z,2.70
2023-05-07T08:37:14.250Z,2.20
2023-05-07T08:41:42.751Z,2.20
2023-05-07T08:45:51.462Z,1.60
2023-05-07T08:49:47.029Z,2.70
2023-05-07T08:53:38.806Z,1.60
2023-05-07T08:57:26.544Z,1.50
2023-05-07T09:01:16.263Z,1.90
2023-05-07T09:05:07.866Z,1.30
2023-05-07T09:09:40.500Z,1.70
2023-05-07T09:14:10.149Z,1.70
2023-05-07T09:17:56.782Z,1.50
2023-05-07T09:21:46.695Z,1.10
2023-05-07T09:25:34.856Z,1.70
2023-05-07T09:29:25.136Z,1.00
2023-05-07T09:33:20.990Z,1.60
2023-05-07T09:37:13.332Z,1.50
2023-05-07T09:41:21.275Z,2.40
2023-05-07T09:45:21.263Z,1.50
2023-05-07T09:49:11.093Z,2.40
2023-05-07T09:53:00.969Z,3.20
2023-05-07T09:56:53.079Z,2.20
2023-05-07T10:01:21.437Z,2.30
2023-05-07T10:05:50.399Z,2.40
2023-05-07T10:09:59.489Z,2.50
2023-05-07T10:13:53.740Z,2.70
2023-05-07T10:18:19.490Z,2.40
2023-05-07T10:22:36.649Z,2.20
2023-05-07T10:26:35.580Z,2.60
2023-05-07T10:30:38.373Z,2.70
2023-05-07T10:34:49.383Z,3.00
2023-05-07T10:39:18.365Z,2.30
2023-05-07T10:43:11.950Z,2.20
2023-05-07T10:47:47.820Z,2.10
2023-05-07T10:52:17.876Z,2.00
2023-05-07T10:56:19.445Z,2.20
2023-05-07T11:00:31.755Z,1.80
2023-05-07T11:04:27.161Z,1.80
2023-05-07T11:08:19.165Z,2.60
2023-05-07T11:12:29.155Z,1.90
2023-05-07T11:16:45.455Z,2.40
2023-05-07T11:21:02.763Z,2.60
2023-05-07T11:25:15.744Z,2.10
2023-05-07T11:29:25.936Z,1.90
2023-05-07T11:33:35.167Z,2.00
2023-05-07T11:37:25.631Z,2.30
2023-05-07T11:41:52.829Z,1.70
2023-05-07T11:45:44.792Z,2.50
2023-05-07T11:49:33.488Z,2.50
2023-05-07T11:53:42.005Z,1.70
2023-05-07T11:57:49.485Z,1.60
2023-05-07T12:01:49.969Z,1.80
2023-05-07T12:05:40.130Z,1.60
2023-05-07T12:10:08.779Z,1.70
2023-05-07T12:14:19.321Z,1.70
2023-05-07T12:18:47.355Z,1.60
2023-05-07T12:22:57.322Z,1.50
2023-05-07T12:27:08.850Z,1.70
2023-05-07T12:30:57.691Z,1.60
2023-05-07T12:35:30.214Z,1.70
2023-05-07T12:39:58.508Z,2.40
2023-05-07T12:44:26.677Z,1.70
2023-05-07T12:48:54.641Z,1.80
2023-05-07T12:52:47.946Z,1.00
2023-05-07T12:56:44.289Z,1.60
2023-05-07T13:00:52.183Z,2.60
2023-05-07T13:05:01.673Z,1.60
2023-05-07T13:09:32.955Z,2.00
2023-05-07T13:14:00.532Z,2.90
2023-05-07T13:18:28.379Z,2.30
2023-05-07T13:22:17.388Z,2.00
2023-05-07T13:26:14.623Z,2.30
2023-05-07T13:30:21.492Z,1.90
2023-05-07T13:34:10.948Z,1.80
2023-05-07T13:38:20.389Z,1.40
2023-05-07T13:42:09.446Z,2.00
2023-05-07T13:46:17.637Z,2.50
2023-05-07T13:50:46.998Z,1.80
2023-05-07T13:54:58.119Z,5.30
2023-05-07T13:59:53.692Z,2.60
2023-05-07T14:03:37.140Z,2.30
2023-05-07T14:08:05.079Z,2.30
2023-05-07T14:11:52.910Z,1.80
2023-05-07T14:15:36.149Z,1.50
2023-05-07T14:19:33.125Z,2.70
2023-05-07T14:23:41.128Z,2.90
2023-05-07T14:27:45.499Z,2.40
2023-05-07T14:31:56.652Z,2.00
2023-05-07T14:36:27.148Z,2.10
2023-05-07T14:40:17.284Z,2.20
2023-05-07T14:44:09.866Z,2.50
2023-05-07T14:48:21.135Z,2.30
2023-05-07T14:52:10.240Z,1.90
2023-05-07T14:56:08.451Z,2.00
2023-05-07T14:59:57.290Z,2.10
2023-05-07T15:03:46.469Z,2.40
2023-05-07T15:07:36.370Z,2.80
2023-05-07T15:11:45.288Z,1.90
2023-05-07T15:15:54.953Z,2.10
2023-05-07T15:19:47.316Z,2.50
2023-05-07T15:23:38.410Z,2.90
2023-05-07T15:27:46.764Z,4.30
2023-05-07T15:31:20.178Z,3.80
2023-05-07T15:35:28.035Z,3.60
2023-05-07T15:39:19.453Z,3.30
2023-05-07T15:43:11.385Z,2.70
2023-05-07T15:47:22.512Z,4.60
2023-05-07T15:51:11.725Z,4.20
2023-05-07T15:55:39.681Z,5.20
2023-05-07T15:59:27.658Z,4.00
2023-05-07T16:03:19.048Z,3.40
2023-05-07T16:07:08.833Z,4.60
2023-05-07T16:11:19.286Z,3.70
2023-05-07T16:15:07.780Z,3.30
2023-05-07T16:18:59.500Z,2.90
2023-05-07T16:22:55.539Z,3.80
2023-05-07T16:27:00.005Z,5.30
2023-05-07T16:30:45.573Z,3.50
2023-05-07T16:34:36.918Z,3.20
2023-05-07T16:38:45.280Z,3.20
2023-05-07T16:42:34.814Z,3.00
2023-05-07T16:46:38.377Z,5.80
2023-05-07T16:50:50.530Z,6.90
2023-05-07T16:54:39.150Z,4.20
2023-05-07T16:58:27.041Z,3.00
2023-05-07T17:02:16.147Z,3.30
2023-05-07T17:06:04.815Z,2.90
2023-05-07T17:09:57.690Z,3.30
2023-05-07T17:13:46.410Z,4.00
2023-05-07T17:17:34.357Z,3.30
2023-05-07T17:21:22.524Z,3.30
2023-05-07T17:25:11.972Z,3.40
2023-05-07T17:29:00.842Z,3.50
2023-05-07T17:32:49.685Z,3.60
2023-05-07T17:36:41.686Z,3.50
2023-05-07T17:40:30.526Z,2.80
2023-05-07T17:44:20.339Z,2.90
2023-05-07T17:48:06.563Z,3.40
2023-05-07T17:52:04.531Z,3.40
2023-05-07T17:55:53.656Z,3.60
2023-05-07T17:59:44.814Z,3.70
2023-05-07T18:03:35.326Z,3.50
2023-05-07T18:07:28.100Z,4.10
2023-05-07T18:11:19.072Z,5.00
2023-05-07T18:15:09.348Z,5.20
2023-05-07T18:18:58.939Z,5.30
2023-05-07T18:22:41.375Z,4.50
2023-05-07T18:26:30.067Z,5.90
2023-05-07T18:30:22.509Z,5.50
2023-05-07T18:34:16.039Z,3.80
2023-05-07T18:38:06.770Z,3.10
2023-05-07T18:41:55.444Z,3.60
2023-05-07T18:45:40.962Z,3.60
2023-05-07T18:49:30.635Z,4.60
2023-05-07T18:53:20.200Z,6.70
2023-05-07T18:57:08.707Z,7.90
2023-05-07T19:00:57.291Z,7.40
2023-05-07T19:04:40.085Z,7.40
2023-05-07T19:08:29.883Z,7.10
2023-05-07T19:12:35.809Z,9.60
2023-05-07T19:16:12.426Z,8.90
2023-05-07T19:19:45.033Z,6.80
2023-05-07T19:23:35.578Z,5.50
2023-05-07T19:27:24.216Z,5.50
2023-05-07T19:31:13.393Z,5.50
2023-05-07T19:35:02.875Z,6.90
2023-05-07T19:38:43.697Z,8.00
2023-05-07T19:42:14.963Z,8.20
2023-05-07T19:46:04.689Z,9.10
2023-05-07T19:49:54.500Z,8.70
2023-05-07T19:53:43.687Z,8.20
2023-05-07T19:57:15.111Z,9.20
2023-05-07T20:00:40.508Z,10.70
2023-05-07T20:04:31.033Z,10.90
2023-05-07T20:08:28.783Z,15.10
2023-05-07T20:12:25.918Z,13.60
2023-05-07T20:16:25.616Z,14.30
2023-05-07T20:20:13.985Z,15.00
2023-05-07T20:24:26.801Z,15.20
2023-05-07T20:28:22.907Z,18.40
2023-05-07T20:32:12.287Z,24.60
2023-05-07T20:35:46.728Z,26.10
2023-05-07T20:39:35.951Z,27.40
2023-05-07T20:43:18.856Z,26.20
2023-05-07T20:46:48.425Z,25.60
2023-05-07T20:50:35.076Z,28.40
2023-05-07T20:54:24.136Z,35.20
2023-05-07T20:58:12.340Z,35.90
2023-05-07T21:02:01.390Z,33.30
2023-05-07T21:05:55.727Z,31.80
2023-05-07T21:09:25.139Z,28.30
2023-05-07T21:13:14.212Z,23.30
2023-05-07T21:16:57.443Z,24.80
2023-05-07T21:20:28.681Z,22.10
2023-05-07T21:24:16.595Z,19.70
2023-05-07T21:27:50.336Z,15.60
2023-05-07T21:31:38.045Z,13.80
2023-05-07T21:35:25.744Z,11.90
2023-05-07T21:39:13.542Z,11.60
2023-05-07T21:43:02.650Z,11.80
2023-05-07T21:46:50.335Z,10.80
2023-05-07T21:50:38.408Z,10.40
2023-05-07T21:54:26.925Z,11.90
2023-05-07T21:58:05.992Z,10.70
2023-05-07T22:01:48.526Z,12.60
2023-05-07T22:05:36.301Z,13.50
2023-05-07T22:09:32.639Z,12.80
2023-05-07T22:13:20.625Z,10.80
2023-05-07T22:17:09.113Z,9.70
2023-05-07T22:20:44.452Z,11.10
2023-05-07T22:24:32.671Z,11.20
2023-05-07T22:28:20.598Z,13.20
2023-05-07T22:31:58.537Z,11.40
2023-05-07T22:35:32.162Z,10.70
2023-05-07T22:39:18.852Z,13.00
2023-05-07T22:43:06.743Z,11.80
2023-05-07T22:47:02.996Z,10.20
2023-05-07T22:50:37.667Z,10.70
2023-05-07T22:54:25.684Z,13.70
2023-05-07T22:57:55.753Z,14.40
2023-05-07T23:01:44.460Z,14.20
2023-05-07T23:05:31.961Z,12.80
2023-05-07T23:09:20.033Z,14.10
2023-05-07T23:13:07.536Z,11.50
2023-05-07T23:16:48.128Z,15.10
2023-05-07T23:20:17.776Z,21.40
2023-05-07T23:23:56.686Z,21.50
2023-05-07T23:27:34.162Z,19.00
2023-05-07T23:31:01.980Z,20.30
2023-05-07T23:34:41.352Z,20.50
2023-05-07T23:38:28.890Z,24.20
2023-05-07T23:41:59.757Z,26.10
2023-05-07T23:45:37.137Z,25.10
2023-05-07T23:49:24.623Z,26.30
2023-05-07T23:53:12.250Z,26.20
2023-05-07T23:56:59.658Z,27.70
